createdAt,value
2023-01-22T00:01:09.466Z,2.00
2023-01-22T00:03:46.979Z,2.00
2023-01-22T00:06:14.823Z,2.10
2023-01-22T00:08:42.869Z,2.10
2023-01-22T00:11:11.682Z,2.00
2023-01-22T00:13:38.778Z,2.90
2023-01-22T00:16:06.748Z,2.00
2023-01-22T00:18:34.583Z,2.10
2023-01-22T00:21:01.535Z,4.70
2023-01-22T00:23:28.460Z,2.10
2023-01-22T00:26:11.979Z,2.10
2023-01-22T00:28:39.187Z,2.10
2023-01-22T00:31:07.160Z,2.10
2023-01-22T00:33:34.785Z,2.10
2023-01-22T00:36:15.926Z,2.10
2023-01-22T00:38:43.082Z,2.10
2023-01-22T00:41:10.763Z,2.10
2023-01-22T00:43:38.875Z,2.00
2023-01-22T00:46:08.003Z,2.00
2023-01-22T00:48:36.158Z,2.10
2023-01-22T00:51:05.854Z,2.10
2023-01-22T00:53:32.949Z,2.10
2023-01-22T00:56:02.177Z,2.10
2023-01-22T00:58:30.213Z,2.10
2023-01-22T01:00:57.384Z,2.10
2023-01-22T01:03:27.213Z,2.10
2023-01-22T01:05:54.478Z,2.10
2023-01-22T01:08:22.597Z,2.10
2023-01-22T01:10:53.773Z,2.10
2023-01-22T01:13:20.692Z,2.10
2023-01-22T01:15:47.687Z,2.20
2023-01-22T01:18:14.623Z,2.10
2023-01-22T01:20:41.636Z,2.20
2023-01-22T01:23:08.668Z,2.20
2023-01-22T01:25:35.617Z,2.20
2023-01-22T01:28:02.602Z,2.20
2023-01-22T01:30:29.475Z,5.40
2023-01-22T01:32:56.495Z,2.20
2023-01-22T01:35:24.414Z,2.20
2023-01-22T01:37:53.595Z,2.10
2023-01-22T01:40:20.557Z,2.20
2023-01-22T01:42:47.484Z,2.20
2023-01-22T01:45:26.345Z,2.20
2023-01-22T01:48:24.507Z,2.20
2023-01-22T01:51:27.039Z,2.20
2023-01-22T01:53:54.194Z,2.30
2023-01-22T01:56:27.067Z,2.30
2023-01-22T01:58:59.326Z,2.30
2023-01-22T02:01:27.623Z,2.10
2023-01-22T02:03:55.054Z,2.20
2023-01-22T02:06:22.271Z,2.10
2023-01-22T02:08:51.027Z,2.10
2023-01-22T02:11:20.237Z,2.10
2023-01-22T02:13:53.722Z,3.30
2023-01-22T02:16:20.777Z,2.10
2023-01-22T02:18:47.876Z,2.10
2023-01-22T02:21:31.466Z,2.20
2023-01-22T02:23:58.899Z,2.20
2023-01-22T02:26:26.020Z,3.80
2023-01-22T02:28:52.996Z,2.10
2023-01-22T02:31:19.918Z,2.10
2023-01-22T02:33:47.337Z,2.20
2023-01-22T02:36:14.436Z,2.10
2023-01-22T02:38:41.371Z,2.20
2023-01-22T02:41:09.184Z,2.20
2023-01-22T02:43:36.410Z,2.20
2023-01-22T02:46:03.521Z,2.20
2023-01-22T02:48:30.476Z,2.20
2023-01-22T02:50:57.973Z,2.20
2023-01-22T02:53:24.962Z,2.20
2023-01-22T02:55:51.979Z,2.20
2023-01-22T02:58:18.987Z,2.20
2023-01-22T03:00:45.868Z,2.20
2023-01-22T03:03:15.316Z,2.10
2023-01-22T03:05:50.843Z,2.10
2023-01-22T03:08:19.263Z,2.20
2023-01-22T03:10:46.668Z,2.20
2023-01-22T03:13:31.878Z,2.20
2023-01-22T03:16:17.221Z,2.20
2023-01-22T03:19:02.344Z,3.40
2023-01-22T03:21:29.237Z,2.20
2023-01-22T03:23:56.335Z,2.20
2023-01-22T03:26:25.172Z,2.20
2023-01-22T03:28:53.095Z,2.20
2023-01-22T03:31:20.310Z,3.20
2023-01-22T03:33:47.254Z,2.20
2023-01-22T03:36:15.669Z,2.30
2023-01-22T03:38:42.999Z,2.30
2023-01-22T03:41:16.374Z,2.30
2023-01-22T03:43:44.003Z,2.30
2023-01-22T03:46:19.836Z,2.30
2023-01-22T03:48:51.200Z,2.30
2023-01-22T03:51:18.724Z,2.30
2023-01-22T03:53:47.083Z,2.30
2023-01-22T03:56:19.017Z,2.30
2023-01-22T03:58:47.084Z,2.30
2023-01-22T04:01:18.741Z,2.30
2023-01-22T04:03:46.176Z,2.30
2023-01-22T04:06:13.480Z,2.30
2023-01-22T04:08:45.020Z,4.20
2023-01-22T04:11:12.510Z,2.30
2023-01-22T04:13:42.053Z,2.30
2023-01-22T04:16:10.581Z,2.30
2023-01-22T04:18:37.479Z,2.40
2023-01-22T04:21:05.768Z,2.30
2023-01-22T04:23:33.220Z,2.30
2023-01-22T04:26:00.302Z,2.30
2023-01-22T04:28:27.154Z,2.30
2023-01-22T04:30:55.259Z,2.30
2023-01-22T04:33:22.480Z,2.30
2023-01-22T04:35:52.485Z,2.30
2023-01-22T04:38:19.499Z,2.40
2023-01-22T04:40:46.953Z,2.40
2023-01-22T04:43:13.944Z,2.30
2023-01-22T04:45:40.797Z,2.40
2023-01-22T04:48:08.593Z,2.30
2023-01-22T04:50:35.890Z,2.40
2023-01-22T04:53:03.554Z,2.30
2023-01-22T04:55:31.003Z,2.40
2023-01-22T04:57:59.969Z,2.30
2023-01-22T05:00:29.246Z,2.40
2023-01-22T05:03:01.084Z,2.30
2023-01-22T05:05:29.071Z,2.40
2023-01-22T05:07:56.245Z,2.40
2023-01-22T05:10:23.670Z,4.90
2023-01-22T05:12:50.957Z,2.40
2023-01-22T05:15:24.337Z,2.40
2023-01-22T05:17:53.109Z,2.40
2023-01-22T05:20:21.084Z,2.40
2023-01-22T05:22:48.625Z,2.40
2023-01-22T05:25:15.842Z,2.40
2023-01-22T05:27:43.190Z,2.40
2023-01-22T05:30:12.355Z,2.40
2023-01-22T05:32:39.638Z,2.40
2023-01-22T05:35:07.213Z,2.40
2023-01-22T05:37:34.424Z,2.50
2023-01-22T05:40:01.905Z,2.50
2023-01-22T05:42:28.880Z,2.50
2023-01-22T05:44:55.810Z,2.50
2023-01-22T05:47:22.795Z,2.50
2023-01-22T05:49:49.811Z,2.40
2023-01-22T05:52:16.819Z,2.50
2023-01-22T05:54:43.739Z,2.40
2023-01-22T05:57:10.689Z,2.10
2023-01-22T05:59:37.588Z,2.30
2023-01-22T06:02:04.443Z,2.40
2023-01-22T06:04:31.538Z,2.40
2023-01-22T06:06:58.527Z,2.40
2023-01-22T06:09:25.871Z,2.40
2023-01-22T06:11:52.845Z,2.30
2023-01-22T06:14:19.820Z,2.40
2023-01-22T06:16:46.753Z,2.40
2023-01-22T06:19:13.878Z,2.30
2023-01-22T06:21:43.528Z,2.40
2023-01-22T06:24:10.978Z,2.40
2023-01-22T06:26:37.909Z,2.40
2023-01-22T06:29:04.804Z,2.40
2023-01-22T06:31:32.500Z,4.80
2023-01-22T06:33:59.578Z,5.00
2023-01-22T06:36:26.570Z,2.20
2023-01-22T06:38:54.003Z,2.50
2023-01-22T06:41:21.173Z,2.40
2023-01-22T06:43:48.117Z,2.50
2023-01-22T06:46:15.188Z,2.40
2023-01-22T06:48:43.654Z,2.50
2023-01-22T06:51:11.246Z,2.40
2023-01-22T06:53:39.028Z,2.50
2023-01-22T06:56:09.724Z,1.90
2023-01-22T06:58:36.688Z,2.50
2023-01-22T07:01:05.945Z,4.10
2023-01-22T07:03:32.969Z,2.50
2023-01-22T07:06:02.584Z,2.40
2023-01-22T07:08:32.221Z,2.40
2023-01-22T07:11:00.365Z,2.50
2023-01-22T07:13:27.498Z,2.40
2023-01-22T07:15:56.574Z,2.50
2023-01-22T07:18:24.370Z,2.40
2023-01-22T07:20:51.849Z,2.30
2023-01-22T07:23:19.056Z,2.40
2023-01-22T07:25:46.416Z,2.40
2023-01-22T07:28:15.058Z,4.70
2023-01-22T07:30:43.357Z,5.10
2023-01-22T07:33:12.044Z,4.90
2023-01-22T07:35:39.218Z,2.30
2023-01-22T07:38:07.071Z,2.30
2023-01-22T07:40:34.538Z,2.30
2023-01-22T07:43:06.299Z,4.70
2023-01-22T07:45:34.363Z,2.40
2023-01-22T07:48:01.409Z,4.80
2023-01-22T07:50:31.176Z,2.30
2023-01-22T07:53:00.694Z,2.40
2023-01-22T07:55:28.959Z,2.40
2023-01-22T07:58:05.801Z,2.40
2023-01-22T08:00:35.350Z,2.40
2023-01-22T08:03:06.851Z,2.30
2023-01-22T08:05:33.741Z,2.30
2023-01-22T08:08:00.721Z,3.60
2023-01-22T08:10:27.986Z,2.30
2023-01-22T08:12:54.977Z,2.30
2023-01-22T08:15:22.220Z,2.40
2023-01-22T08:17:51.145Z,2.50
2023-01-22T08:20:19.031Z,2.40
2023-01-22T08:22:46.202Z,4.90
2023-01-22T08:25:13.109Z,2.50
2023-01-22T08:27:40.365Z,2.40
2023-01-22T08:30:08.869Z,2.50
2023-01-22T08:32:35.876Z,2.50
2023-01-22T08:35:02.940Z,3.90
2023-01-22T08:37:29.938Z,0.40
2023-01-22T08:39:56.929Z,2.50
2023-01-22T08:42:23.927Z,2.60
2023-01-22T08:44:50.884Z,2.60
2023-01-22T08:47:17.941Z,2.60
2023-01-22T08:49:44.921Z,2.70
2023-01-22T08:52:11.814Z,2.60
2023-01-22T08:54:39.967Z,2.70
2023-01-22T08:57:07.036Z,2.70
2023-01-22T08:59:33.924Z,4.10
2023-01-22T09:02:01.939Z,2.70
2023-01-22T09:04:29.233Z,5.70
2023-01-22T09:06:56.507Z,3.80
2023-01-22T09:09:23.812Z,5.10
2023-01-22T09:11:50.838Z,5.20
2023-01-22T09:14:17.878Z,3.00
2023-01-22T09:16:44.885Z,3.00
2023-01-22T09:19:13.136Z,3.10
2023-01-22T09:21:40.385Z,3.10
2023-01-22T09:24:07.914Z,4.70
2023-01-22T09:26:36.980Z,3.20
2023-01-22T09:29:05.830Z,4.40
2023-01-22T09:31:37.214Z,5.10
2023-01-22T09:34:04.665Z,3.80
2023-01-22T09:36:31.732Z,3.20
2023-01-22T09:38:58.846Z,3.20
2023-01-22T09:41:39.313Z,3.30
2023-01-22T09:44:18.559Z,3.20
2023-01-22T09:46:56.234Z,3.20
2023-01-22T09:49:37.903Z,3.20
2023-01-22T09:52:06.321Z,3.30
2023-01-22T09:54:33.928Z,5.00
2023-01-22T09:57:04.773Z,3.20
2023-01-22T09:59:39.610Z,3.30
2023-01-22T10:02:59.821Z,3.30
2023-01-22T10:05:31.744Z,3.30
2023-01-22T10:08:17.986Z,3.30
2023-01-22T10:10:44.856Z,3.30
2023-01-22T10:13:18.333Z,3.40
2023-01-22T10:15:46.330Z,6.40
2023-01-22T10:18:25.809Z,3.30
2023-01-22T10:20:55.402Z,3.30
2023-01-22T10:23:25.795Z,3.30
2023-01-22T10:26:16.463Z,3.10
2023-01-22T10:28:51.095Z,4.40
2023-01-22T10:31:30.180Z,6.20
2023-01-22T10:34:03.995Z,3.30
2023-01-22T10:36:31.862Z,3.30
2023-01-22T10:39:12.373Z,3.30
2023-01-22T10:41:41.037Z,3.30
2023-01-22T10:44:22.817Z,3.30
2023-01-22T10:46:50.906Z,3.30
2023-01-22T10:49:26.133Z,3.20
2023-01-22T10:51:53.098Z,3.30
2023-01-22T10:54:32.261Z,6.00
2023-01-22T10:57:23.013Z,5.40
2023-01-22T10:59:53.741Z,3.40
2023-01-22T11:02:26.667Z,3.30
2023-01-22T11:04:54.039Z,3.30
2023-01-22T11:07:32.799Z,3.30
2023-01-22T11:10:24.445Z,3.30
2023-01-22T11:13:00.813Z,3.40
2023-01-22T11:15:48.644Z,3.30
2023-01-22T11:18:32.726Z,3.40
2023-01-22T11:21:02.085Z,3.30
2023-01-22T11:23:58.129Z,5.60
2023-01-22T11:27:16.206Z,3.40
2023-01-22T11:30:37.376Z,3.30
2023-01-22T11:33:37.373Z,3.40
2023-01-22T11:36:31.871Z,3.30
2023-01-22T11:39:21.114Z,3.40
2023-01-22T11:42:14.401Z,3.30
2023-01-22T11:45:17.205Z,3.40
2023-01-22T11:48:22.199Z,3.30
2023-01-22T11:50:59.432Z,3.30
2023-01-22T11:53:59.955Z,3.30
2023-01-22T11:57:06.250Z,3.30
2023-01-22T12:00:20.770Z,3.30
2023-01-22T12:03:22.844Z,3.30
2023-01-22T12:06:26.737Z,3.30
2023-01-22T12:09:05.035Z,3.30
2023-01-22T12:11:43.728Z,3.30
2023-01-22T12:14:31.161Z,3.30
2023-01-22T12:17:24.017Z,3.30
2023-01-22T12:20:16.971Z,3.30
2023-01-22T12:23:19.544Z,3.30
2023-01-22T12:26:17.660Z,3.30
2023-01-22T12:28:52.514Z,3.10
2023-01-22T12:31:39.288Z,3.30
2023-01-22T12:34:28.072Z,3.30
2023-01-22T12:36:56.148Z,3.30
2023-01-22T12:39:32.057Z,3.40
2023-01-22T12:42:40.349Z,3.40
2023-01-22T12:45:52.340Z,3.40
2023-01-22T12:48:50.808Z,6.00
2023-01-22T12:51:38.027Z,3.40
2023-01-22T12:54:19.901Z,3.70
2023-01-22T12:56:49.349Z,4.90
2023-01-22T12:59:37.576Z,3.70
2023-01-22T13:02:23.664Z,3.50
2023-01-22T13:04:51.251Z,3.50
2023-01-22T13:07:34.119Z,3.60
2023-01-22T13:10:21.116Z,3.60
2023-01-22T13:12:52.313Z,3.60
2023-01-22T13:15:27.062Z,3.60
2023-01-22T13:18:12.645Z,3.60
2023-01-22T13:20:53.458Z,4.80
2023-01-22T13:23:21.670Z,3.50
2023-01-22T13:25:54.894Z,3.50
2023-01-22T13:28:23.948Z,3.60
2023-01-22T13:31:05.254Z,5.10
2023-01-22T13:33:32.437Z,3.70
2023-01-22T13:36:10.946Z,3.60
2023-01-22T13:38:37.943Z,3.70
2023-01-22T13:41:13.189Z,3.60
2023-01-22T13:43:42.346Z,3.70
2023-01-22T13:46:14.154Z,3.70
2023-01-22T13:48:41.767Z,3.60
2023-01-22T13:51:18.423Z,3.60
2023-01-22T13:53:54.726Z,3.60
2023-01-22T13:56:26.486Z,3.60
2023-01-22T13:59:06.736Z,3.70
2023-01-22T14:01:36.785Z,3.60
2023-01-22T14:04:26.318Z,3.60
2023-01-22T14:06:53.348Z,3.60
2023-01-22T14:09:36.595Z,3.60
2023-01-22T14:12:18.153Z,3.50
2023-01-22T14:14:45.492Z,3.60
2023-01-22T14:17:31.375Z,3.50
2023-01-22T14:19:58.611Z,3.60
2023-01-22T14:22:26.246Z,4.90
2023-01-22T14:24:54.039Z,3.60
2023-01-22T14:27:38.717Z,3.30
2023-01-22T14:30:07.537Z,3.60
2023-01-22T14:32:34.518Z,3.50
2023-01-22T14:35:01.801Z,3.50
2023-01-22T14:37:28.817Z,3.60
2023-01-22T14:39:55.709Z,3.60
2023-01-22T14:42:26.559Z,3.60
2023-01-22T14:44:54.222Z,6.40
2023-01-22T14:47:21.147Z,3.60
2023-01-22T14:49:49.246Z,3.60
2023-01-22T14:52:16.269Z,3.40
2023-01-22T14:54:43.163Z,3.50
2023-01-22T14:57:10.046Z,3.60
2023-01-22T14:59:36.967Z,5.70
2023-01-22T15:02:04.299Z,6.60
2023-01-22T15:04:31.173Z,3.40
2023-01-22T15:06:58.216Z,5.80
2023-01-22T15:09:25.477Z,3.80
2023-01-22T15:11:52.359Z,6.10
2023-01-22T15:14:19.609Z,3.40
2023-01-22T15:16:46.508Z,5.00
2023-01-22T15:19:13.554Z,4.40
2023-01-22T15:21:41.081Z,3.40
2023-01-22T15:24:08.871Z,3.40
2023-01-22T15:26:37.252Z,3.50
2023-01-22T15:29:07.415Z,3.40
2023-01-22T15:31:35.174Z,3.50
2023-01-22T15:34:03.339Z,3.40
2023-01-22T15:36:34.719Z,4.50
2023-01-22T15:39:02.714Z,3.50
2023-01-22T15:41:32.553Z,3.40
2023-01-22T15:44:01.358Z,5.70
2023-01-22T15:46:31.903Z,5.00
2023-01-22T15:49:00.237Z,6.10
2023-01-22T15:51:28.442Z,5.30
2023-01-22T15:53:58.905Z,4.00
2023-01-22T15:56:29.051Z,3.40
2023-01-22T15:58:57.328Z,3.30
2023-01-22T16:01:26.436Z,3.30
2023-01-22T16:03:54.418Z,5.50
2023-01-22T16:06:27.550Z,3.30
2023-01-22T16:09:00.021Z,6.00
2023-01-22T16:11:29.559Z,6.20
2023-01-22T16:13:56.973Z,5.90
2023-01-22T16:16:30.462Z,3.30
2023-01-22T16:19:00.191Z,3.20
2023-01-22T16:21:27.747Z,3.20
2023-01-22T16:23:59.240Z,3.20
2023-01-22T16:26:30.325Z,5.70
2023-01-22T16:28:59.229Z,3.20
2023-01-22T16:31:30.106Z,3.70
2023-01-22T16:34:08.167Z,3.20
2023-01-22T16:36:35.422Z,3.20
2023-01-22T16:39:04.893Z,5.60
2023-01-22T16:41:35.008Z,4.80
2023-01-22T16:44:17.179Z,3.20
2023-01-22T16:46:48.029Z,3.20
2023-01-22T16:49:23.382Z,4.10
2023-01-22T16:51:54.908Z,3.20
2023-01-22T16:54:30.079Z,3.20
2023-01-22T16:56:59.700Z,3.20
2023-01-22T16:59:27.820Z,3.20
2023-01-22T17:01:58.229Z,3.10
2023-01-22T17:04:25.611Z,3.20
2023-01-22T17:06:58.391Z,3.10
2023-01-22T17:09:36.129Z,3.10
2023-01-22T17:12:05.372Z,3.10
2023-01-22T17:14:37.330Z,3.00
2023-01-22T17:17:08.841Z,3.00
2023-01-22T17:19:36.467Z,3.00
2023-01-22T17:22:04.130Z,2.90
2023-01-22T17:24:31.915Z,2.80
2023-01-22T17:27:02.323Z,2.90
2023-01-22T17:29:32.015Z,2.90
2023-01-22T17:31:59.233Z,3.00
2023-01-22T17:34:26.331Z,5.40
2023-01-22T17:36:53.891Z,2.90
2023-01-22T17:39:21.163Z,2.80
2023-01-22T17:41:48.291Z,2.80
2023-01-22T17:44:15.289Z,2.80
2023-01-22T17:46:42.514Z,2.80
2023-01-22T17:49:11.151Z,2.80
2023-01-22T17:51:38.587Z,2.80
2023-01-22T17:54:06.443Z,2.90
2023-01-22T17:56:37.850Z,2.80
2023-01-22T17:59:07.082Z,1.50
2023-01-22T18:01:36.678Z,2.80
2023-01-22T18:04:07.629Z,2.80
2023-01-22T18:06:36.014Z,2.70
2023-01-22T18:09:05.550Z,2.70
2023-01-22T18:11:34.070Z,4.80
2023-01-22T18:14:16.665Z,4.10
2023-01-22T18:16:44.119Z,2.70
2023-01-22T18:19:11.703Z,2.60
2023-01-22T18:21:39.501Z,2.60
2023-01-22T18:24:09.063Z,2.60
2023-01-22T18:26:36.753Z,2.60
2023-01-22T18:29:05.020Z,2.50
2023-01-22T18:31:32.244Z,2.40
2023-01-22T18:34:02.869Z,2.40
2023-01-22T18:36:37.016Z,2.40
2023-01-22T18:39:13.094Z,4.90
2023-01-22T18:41:40.893Z,2.40
2023-01-22T18:44:09.145Z,2.30
2023-01-22T18:46:37.094Z,2.30
2023-01-22T18:49:10.100Z,2.30
2023-01-22T18:51:36.997Z,2.30
2023-01-22T18:54:05.277Z,2.30
2023-01-22T18:56:33.193Z,2.30
2023-01-22T18:59:00.344Z,2.20
2023-01-22T19:01:31.043Z,2.30
2023-01-22T19:04:05.870Z,2.30
2023-01-22T19:06:37.334Z,5.10
2023-01-22T19:09:12.276Z,2.20
2023-01-22T19:11:44.156Z,2.20
2023-01-22T19:14:15.816Z,3.70
2023-01-22T19:16:44.917Z,2.10
2023-01-22T19:19:13.581Z,2.10
2023-01-22T19:21:46.873Z,2.00
2023-01-22T19:24:17.622Z,3.00
2023-01-22T19:26:46.647Z,4.50
2023-01-22T19:29:17.473Z,4.80
2023-01-22T19:31:51.837Z,1.60
2023-01-22T19:34:25.393Z,1.80
2023-01-22T19:36:56.177Z,1.70
2023-01-22T19:39:25.494Z,4.80
2023-01-22T19:41:52.921Z,1.40
2023-01-22T19:44:20.177Z,1.70
2023-01-22T19:46:48.537Z,1.60
2023-01-22T19:49:15.721Z,1.60
2023-01-22T19:51:43.051Z,4.40
2023-01-22T19:54:10.283Z,1.70
2023-01-22T19:56:38.900Z,4.60
2023-01-22T19:59:16.396Z,1.60
2023-01-22T20:01:45.768Z,1.60
2023-01-22T20:04:29.770Z,1.60
2023-01-22T20:07:01.037Z,1.60
2023-01-22T20:09:29.888Z,4.30
2023-01-22T20:11:58.166Z,1.50
2023-01-22T20:14:29.856Z,1.50
2023-01-22T20:16:58.212Z,1.50
2023-01-22T20:19:25.120Z,1.40
2023-01-22T20:21:52.028Z,4.30
2023-01-22T20:24:19.312Z,1.40
2023-01-22T20:26:46.397Z,1.40
2023-01-22T20:29:13.317Z,1.50
2023-01-22T20:31:40.935Z,1.40
2023-01-22T20:34:07.891Z,1.30
2023-01-22T20:36:35.562Z,1.30
2023-01-22T20:39:03.248Z,1.60
2023-01-22T20:41:32.246Z,1.20
2023-01-22T20:43:59.240Z,3.60
2023-01-22T20:46:27.373Z,1.20
2023-01-22T20:48:57.868Z,0.50
2023-01-22T20:51:28.161Z,2.70
2023-01-22T20:53:56.741Z,1.20
2023-01-22T20:56:31.494Z,1.10
2023-01-22T20:59:06.269Z,1.10
2023-01-22T21:01:33.923Z,1.20
2023-01-22T21:04:02.526Z,1.20
2023-01-22T21:06:32.994Z,1.10
2023-01-22T21:09:01.302Z,1.20
2023-01-22T21:11:33.745Z,1.20
2023-01-22T21:14:05.065Z,1.20
2023-01-22T21:16:35.641Z,1.30
2023-01-22T21:19:21.832Z,1.20
2023-01-22T21:21:49.200Z,1.20
2023-01-22T21:24:16.909Z,1.20
2023-01-22T21:26:44.781Z,1.20
2023-01-22T21:29:18.953Z,1.20
2023-01-22T21:31:49.586Z,3.60
2023-01-22T21:34:19.829Z,1.20
2023-01-22T21:36:49.233Z,1.90
2023-01-22T21:39:24.023Z,1.20
2023-01-22T21:41:51.794Z,2.80
2023-01-22T21:44:38.428Z,1.20
2023-01-22T21:47:05.780Z,1.10
2023-01-22T21:49:34.989Z,1.10
2023-01-22T21:52:05.911Z,1.10
2023-01-22T21:54:41.264Z,1.10
2023-01-22T21:57:14.224Z,2.60
2023-01-22T21:59:41.481Z,1.10
2023-01-22T22:02:14.147Z,1.10
2023-01-22T22:04:41.683Z,1.00
2023-01-22T22:07:08.611Z,1.00
2023-01-22T22:09:35.540Z,1.00
2023-01-22T22:12:02.933Z,1.00
2023-01-22T22:14:30.433Z,1.00
2023-01-22T22:16:57.681Z,1.00
2023-01-22T22:19:25.491Z,2.80
2023-01-22T22:21:52.429Z,1.00
2023-01-22T22:24:21.406Z,1.00
2023-01-22T22:26:48.521Z,1.00
2023-01-22T22:29:15.450Z,0.90
2023-01-22T22:31:42.608Z,0.30
2023-01-22T22:34:09.644Z,0.70
2023-01-22T22:36:36.693Z,0.80
2023-01-22T22:39:06.312Z,0.70
2023-01-22T22:41:35.952Z,2.80
2023-01-22T22:44:03.173Z,0.70
2023-01-22T22:46:34.885Z,2.60
2023-01-22T22:49:03.062Z,0.70
2023-01-22T22:51:36.791Z,0.70
2023-01-22T22:54:10.236Z,0.70
2023-01-22T22:56:37.303Z,1.80
2023-01-22T22:59:05.185Z,2.60
2023-01-22T23:01:33.176Z,0.70
2023-01-22T23:04:01.126Z,0.70
2023-01-22T23:06:33.520Z,0.70
2023-01-22T23:09:01.186Z,0.70
2023-01-22T23:11:32.271Z,0.70
2023-01-22T23:14:03.343Z,0.60
2023-01-22T23:16:35.889Z,0.60
2023-01-22T23:19:07.637Z,0.50
2023-01-22T23:21:36.311Z,0.80
2023-01-22T23:24:03.575Z,0.60
2023-01-22T23:26:31.499Z,0.60
2023-01-22T23:29:02.301Z,0.70
2023-01-22T23:31:32.325Z,0.60
2023-01-22T23:34:01.268Z,0.70
2023-01-22T23:36:28.270Z,0.70
2023-01-22T23:38:55.568Z,0.70
2023-01-22T23:41:23.451Z,0.70
2023-01-22T23:43:51.037Z,0.70
2023-01-22T23:46:24.914Z,0.60
2023-01-22T23:48:54.193Z,0.60
2023-01-22T23:51:21.738Z,0.60
2023-01-22T23:53:53.470Z,0.50
2023-01-22T23:56:24.388Z,0.40
2023-01-22T23:58:55.289Z,0.60
